Time;durP1;ratioP1;P1;durP2;ratioP2;P2;SDS_P1;SDS_P2;PMS_P1;PMS_P2;Temp;Humidity;BMP_temperature;BMP_pressure;BME280_temperature;BME280_humidity;BME280_pressure;Samples;Min_cycle;Max_cycle;Signal;HPM_P1;HPM_P2
2020/12/08 00:02:00;;;;;;;13.20;10.80;;;;;;;9.85;50.80;100079.44;4985059;28;97257;-76
2020/12/08 00:04:28;;;;;;;16.17;14.07;;;;;;;10.12;49.81;100075.47;4987087;28;97340;-75
2020/12/08 00:06:56;;;;;;;13.88;11.38;;;;;;;9.93;50.49;100083.31;4990490;28;98099;-77
2020/12/08 00:09:24;;;;;;;12.77;10.48;;;;;;;9.89;50.58;100091.00;4992138;28;99945;-76
2020/12/08 00:11:51;;;;;;;14.35;10.60;;;;;;;9.86;51.11;100088.22;4984097;28;97165;-77
2020/12/08 00:14:19;;;;;;;15.67;13.23;;;;;;;10.13;50.15;100087.75;4983758;28;97307;-76
2020/12/08 00:16:46;;;;;;;15.38;11.48;;;;;;;9.96;50.44;100074.69;4996984;28;98271;-75
2020/12/08 00:19:14;;;;;;;13.93;10.85;;;;;;;9.89;50.47;100076.13;4990581;28;99299;-76
2020/12/08 00:21:42;;;;;;;15.87;13.43;;;;;;;10.18;49.85;100070.47;4982411;28;97027;-75
2020/12/08 00:24:11;;;;;;;17.70;14.00;;;;;;;10.28;49.46;100071.75;4988702;28;97369;-77
2020/12/08 00:26:41;;;;;;;16.77;14.70;;;;;;;10.30;49.92;100054.34;4985710;28;99951;-75
2020/12/08 00:29:09;;;;;;;17.20;14.10;;;;;;;10.34;49.36;100061.53;4988429;28;98398;-76
2020/12/08 00:31:36;;;;;;;14.82;12.07;;;;;;;10.13;49.69;100074.63;4980835;28;97223;-75
2020/12/08 00:34:05;;;;;;;16.23;14.57;;;;;;;10.36;49.56;100070.38;4987338;28;96852;-75
2020/12/08 00:36:33;;;;;;;15.95;11.77;;;;;;;10.15;49.33;100078.22;4987251;28;99238;-75
2020/12/08 00:39:00;;;;;;;14.43;11.25;;;;;;;10.06;50.08;100077.78;4988161;28;98082;-77
2020/12/08 00:41:29;;;;;;;18.95;14.70;;;;;;;10.32;49.16;100072.78;4979388;28;96909;-76
2020/12/08 00:43:57;;;;;;;16.05;14.02;;;;;;;10.37;49.52;100066.91;4966799;28;97219;-76
2020/12/08 00:46:25;;;;;;;13.23;11.13;;;;;;;10.14;50.04;100078.16;4981871;28;99143;-75
2020/12/08 00:48:52;;;;;;;16.88;13.57;;;;;;;10.37;49.26;100076.50;4986218;28;99041;-75
2020/12/08 00:51:20;;;;;;;13.95;12.20;;;;;;;10.14;50.02;100073.78;4982925;28;96836;-76
2020/12/08 00:54:06;;;;;;;13.20;11.10;;;;;;;10.05;50.75;100070.72;4981000;28;97349;-76
2020/12/08 00:56:35;;;;;;;13.85;10.88;;;;;;;9.99;50.53;100059.97;4972564;28;101351;-76
2020/12/08 00:59:03;;;;;;;14.65;10.98;;;;;;;9.93;50.67;100062.31;4983262;28;99218;-76
2020/12/08 01:01:31;;;;;;;14.38;11.93;;;;;;;9.90;50.75;100064.81;4985617;28;97015;-75
2020/12/08 01:04:02;;;;;;;13.35;10.45;;;;;;;9.88;51.08;100066.47;4986146;28;97858;-76
2020/12/08 01:06:30;;;;;;;14.50;10.70;;;;;;;9.87;50.69;100051.56;4991088;28;101048;-77
2020/12/08 01:08:57;;;;;;;14.05;11.57;;;;;;;9.88;50.31;100052.47;4980178;28;98159;-76
2020/12/08 01:11:25;;;;;;;13.38;11.27;;;;;;;9.87;50.42;100061.19;4982642;28;97882;-76
2020/12/08 01:13:53;;;;;;;14.77;12.00;;;;;;;9.86;50.47;100064.59;4987129;28;97388;-75
2020/12/08 01:16:26;;;;;;;15.52;10.98;;;;;;;9.84;50.87;100067.16;4991200;28;97119;-76
2020/12/08 01:18:59;;;;;;;12.85;11.05;;;;;;;9.84;50.77;100064.56;4986393;28;97787;-77
2020/12/08 01:21:44;;;;;;;14.65;10.77;;;;;;;9.83;50.77;100067.09;4987337;28;97077;-75
2020/12/08 01:24:12;;;;;;;14.45;10.65;;;;;;;9.83;51.15;100064.47;4990128;28;96974;-75
2020/12/08 01:26:40;;;;;;;12.52;10.90;;;;;;;9.81;51.18;100066.13;4987585;28;99076;-76
2020/12/08 01:29:09;;;;;;;13.55;10.50;;;;;;;9.81;50.86;100064.44;4979389;28;99503;-76
2020/12/08 01:31:41;;;;;;;13.52;10.43;;;;;;;9.83;50.57;100067.09;4984253;28;97075;-76
2020/12/08 01:34:14;;;;;;;13.02;10.80;;;;;;;9.82;50.85;100067.91;4987886;28;96874;-76
2020/12/08 01:36:42;;;;;;;13.55;11.05;;;;;;;9.81;51.26;100066.13;4984335;28;98044;-74
2020/12/08 01:39:10;;;;;;;13.60;10.18;;;;;;;9.82;51.30;100062.69;4988370;28;101704;-75
2020/12/08 01:41:39;;;;;;;11.82;10.35;;;;;;;9.81;50.89;100067.03;4988251;28;96813;-76
2020/12/08 01:44:06;;;;;;;12.85;10.15;;;;;;;9.81;50.74;100059.19;4982768;28;97160;-76
2020/12/08 01:46:36;;;;;;;15.63;10.77;;;;;;;9.80;50.77;100061.69;4991945;28;99264;-76
2020/12/08 01:49:05;;;;;;;14.02;11.15;;;;;;;9.81;50.90;100056.56;4986432;28;99645;-77
2020/12/08 01:51:33;;;;;;;12.98;11.00;;;;;;;9.81;50.67;100053.03;4989394;28;97415;-76
2020/12/08 01:54:02;;;;;;;11.55;10.35;;;;;;;9.81;51.25;100051.31;4981271;28;97995;-77
2020/12/08 01:56:40;;;;;;;13.13;10.73;;;;;;;9.79;50.95;100050.34;4985584;28;98283;-76
2020/12/08 01:59:10;;;;;;;11.30;10.18;;;;;;;9.80;50.80;100052.13;4983102;28;99370;-76
2020/12/08 02:01:42;;;;;;;12.20;10.55;;;;;;;9.81;50.90;100051.31;4987716;28;96813;-76
2020/12/08 02:04:10;;;;;;;11.60;10.40;;;;;;;9.81;51.39;100046.06;4985774;28;98347;-76
2020/12/08 02:06:40;;;;;;;11.52;10.32;;;;;;;9.86;50.51;100041.91;4997947;28;102271;-75
2020/12/08 02:09:11;;;;;;;11.13;9.98;;;;;;;9.86;51.10;100044.53;4983347;28;98863;-75
2020/12/08 02:11:39;;;;;;;11.07;9.93;;;;;;;9.87;50.51;100043.69;4992185;28;97143;-75
2020/12/08 02:14:07;;;;;;;12.32;9.90;;;;;;;9.88;51.04;100047.22;4992958;28;97193;-75
2020/12/08 02:16:36;;;;;;;11.77;10.55;;;;;;;9.87;51.18;100041.06;4995079;28;97927;-76
2020/12/08 02:19:06;;;;;;;15.40;13.52;;;;;;;10.15;50.27;100033.59;4984132;28;99525;-76
2020/12/08 02:21:38;;;;;;;15.20;13.57;;;;;;;10.30;50.62;100032.44;4988687;28;97457;-75
2020/12/08 02:24:16;;;;;;;15.40;13.53;;;;;;;10.39;49.44;100033.75;4981030;28;97388;-76
2020/12/08 02:26:44;;;;;;;15.50;13.63;;;;;;;10.47;49.71;100029.72;4992816;28;99495;-76
2020/12/08 02:29:32;;;;;;;17.13;14.18;;;;;;;10.55;49.17;100030.00;4989797;28;100598;-74
2020/12/08 02:31:59;;;;;;;16.25;14.20;;;;;;;10.63;49.64;100039.09;5003206;28;96893;-76
2020/12/08 02:34:27;;;;;;;16.58;14.45;;;;;;;10.68;49.43;100042.81;4996010;28;97248;-75
2020/12/08 02:36:58;;;;;;;16.67;14.55;;;;;;;10.73;48.72;100042.16;4989116;28;98152;-76
2020/12/08 02:39:34;;;;;;;15.55;13.93;;;;;;;10.79;48.67;100044.13;5011389;28;97976;-74
2020/12/08 02:42:02;;;;;;;17.60;13.95;;;;;;;10.83;48.26;100048.69;4982580;28;97412;-76
2020/12/08 02:44:29;;;;;;;16.20;14.35;;;;;;;10.88;48.33;100047.13;4983114;28;97274;-76
2020/12/08 02:46:57;;;;;;;16.10;14.40;;;;;;;10.92;48.27;100049.94;4981678;28;98272;-75
2020/12/08 02:49:26;;;;;;;16.83;14.85;;;;;;;10.93;48.11;100045.59;4993304;28;98146;-76
2020/12/08 02:51:57;;;;;;;17.45;14.68;;;;;;;10.96;48.49;100062.38;4989984;28;97244;-75
2020/12/08 02:54:29;;;;;;;15.80;14.13;;;;;;;11.01;47.88;100054.66;4987437;28;96963;-76
2020/12/08 02:57:01;;;;;;;15.83;14.03;;;;;;;11.01;47.95;100052.94;4984435;28;102080;-75
2020/12/08 02:59:33;;;;;;;14.00;11.45;;;;;;;10.80;48.63;100056.44;5003029;28;100362;-75
2020/12/08 03:02:01;;;;;;;12.02;10.50;;;;;;;10.68;49.10;100061.19;5028058;22;98415;-75
2020/12/08 03:04:33;;;;;;;12.75;10.63;;;;;;;10.58;49.04;100062.56;5003148;28;97660;-75
2020/12/08 03:07:04;;;;;;;17.00;14.00;;;;;;;10.84;48.79;100056.63;5006103;28;98145;-74
2020/12/08 03:09:34;;;;;;;16.65;13.98;;;;;;;10.93;48.14;100061.38;5007183;28;98864;-75
2020/12/08 03:12:05;;;;;;;16.40;14.60;;;;;;;10.97;48.06;100066.78;4993087;28;97081;-75
2020/12/08 03:14:33;;;;;;;15.67;13.97;;;;;;;11.04;48.02;100067.91;4989465;28;97197;-77
2020/12/08 03:17:04;;;;;;;12.23;10.90;;;;;;;10.79;48.54;100059.91;4987888;28;99273;-77
2020/12/08 03:19:32;;;;;;;12.40;10.55;;;;;;;10.71;48.47;100061.34;4986167;28;99204;-77
2020/12/08 03:22:00;;;;;;;11.27;9.90;;;;;;;10.61;49.21;100057.44;4989356;28;96847;-77
2020/12/08 03:24:52;;;;;;;14.10;9.98;;;;;;;10.53;49.38;100061.44;4987857;28;97803;-76
2020/12/08 03:27:22;;;;;;;13.50;11.10;;;;;;;10.49;50.03;100058.66;4970896;28;100378;-77
2020/12/08 03:29:54;;;;;;;12.23;10.73;;;;;;;10.45;49.61;100056.72;4985529;28;98229;-76
2020/12/08 03:32:25;;;;;;;12.73;11.02;;;;;;;10.41;49.76;100057.41;4981674;28;97864;-77
2020/12/08 03:34:53;;;;;;;13.50;10.63;;;;;;;10.37;49.83;100050.25;4986454;28;96939;-76
2020/12/08 03:37:21;;;;;;;12.32;10.07;;;;;;;10.34;50.14;100050.13;4986512;28;99176;-78
2020/12/08 03:39:54;;;;;;;13.70;11.43;;;;;;;10.30;49.96;100046.47;4963177;28;99060;-74
2020/12/08 03:42:24;;;;;;;13.00;10.77;;;;;;;10.29;49.50;100051.66;4969726;28;97219;-77
2020/12/08 03:44:52;;;;;;;13.70;10.73;;;;;;;10.27;50.12;100053.31;4987091;28;97339;-76
2020/12/08 03:47:43;;;;;;;11.82;10.50;;;;;;;10.26;49.85;100043.63;4977431;28;100610;-77
2020/12/08 03:50:13;;;;;;;12.73;11.25;;;;;;;10.26;49.94;100046.25;4986161;28;97692;-78
2020/12/08 03:52:42;;;;;;;13.02;10.52;;;;;;;10.24;50.32;100045.34;4985503;28;97647;-75
2020/12/08 03:55:11;;;;;;;12.77;10.73;;;;;;;10.22;49.50;100044.38;4985831;28;98104;-75
2020/12/08 03:57:38;;;;;;;12.73;10.88;;;;;;;10.19;49.45;100035.53;4984528;28;97905;-78
2020/12/08 04:00:09;;;;;;;14.50;11.25;;;;;;;10.21;49.60;100035.59;4986894;28;99234;-76
2020/12/08 04:02:39;;;;;;;13.95;11.48;;;;;;;10.18;49.87;100028.47;4986609;28;97387;-74
2020/12/08 04:05:29;;;;;;;15.85;11.65;;;;;;;10.18;50.20;100038.09;4981523;28;97643;-76
2020/12/08 04:07:56;;;;;;;14.20;11.27;;;;;;;10.18;50.44;100038.09;4984128;28;99221;-73
2020/12/08 04:10:31;;;;;;;13.60;10.75;;;;;;;10.18;49.66;100032.84;4985213;28;99187;-76
2020/12/08 04:13:02;;;;;;;13.27;11.00;;;;;;;10.17;50.50;100031.94;4985216;28;97315;-76
2020/12/08 04:15:29;;;;;;;14.50;11.73;;;;;;;10.17;50.28;100034.56;4985870;28;97219;-75
2020/12/08 04:17:57;;;;;;;14.07;12.05;;;;;;;10.17;50.37;100034.56;4983875;28;98299;-76
2020/12/08 04:20:25;;;;;;;13.15;11.45;;;;;;;10.19;49.83;100034.63;4985789;28;98116;-76
2020/12/08 04:22:53;;;;;;;15.38;11.63;;;;;;;10.20;50.33;100041.66;4984242;28;98253;-76
2020/12/08 04:25:23;;;;;;;14.32;11.35;;;;;;;10.20;50.59;100042.56;4981619;28;97400;-76
2020/12/08 04:27:51;;;;;;;12.93;11.20;;;;;;;10.22;50.65;100041.75;4999091;28;98877;-76
2020/12/08 04:30:19;;;;;;;13.68;11.50;;;;;;;10.24;49.67;100042.72;4969307;28;99916;-76
2020/12/08 04:32:47;;;;;;;14.77;11.98;;;;;;;10.24;49.63;100042.72;4985385;28;96849;-75
2020/12/08 04:35:15;;;;;;;13.48;11.07;;;;;;;10.23;49.82;100039.19;4983975;28;98211;-75
2020/12/08 04:37:43;;;;;;;15.52;11.95;;;;;;;10.25;50.43;100039.25;4983184;28;99188;-76
2020/12/08 04:40:10;;;;;;;14.60;12.30;;;;;;;10.24;49.92;100035.72;4984580;28;100366;-76
2020/12/08 04:42:43;;;;;;;16.10;12.70;;;;;;;10.24;50.46;100048.84;4985228;28;97306;-76
2020/12/08 04:45:12;;;;;;;14.68;11.73;;;;;;;10.24;50.01;100042.72;4984304;28;97251;-76
2020/12/08 04:47:42;;;;;;;13.13;10.82;;;;;;;10.25;49.83;100041.88;4983921;28;98445;-77
2020/12/08 04:50:10;;;;;;;13.73;11.88;;;;;;;10.24;50.44;100040.97;4984607;28;97460;-76
2020/12/08 04:52:38;;;;;;;15.68;12.02;;;;;;;10.24;50.27;100038.34;4967964;28;97137;-76
2020/12/08 04:55:05;;;;;;;14.38;11.10;;;;;;;10.25;50.33;100034.91;4998872;28;97441;-76
2020/12/08 04:57:33;;;;;;;16.50;12.55;;;;;;;10.27;50.05;100040.19;4985223;28;99116;-75
2020/12/08 05:00:21;;;;;;;13.75;11.27;;;;;;;10.28;50.21;100040.25;4984046;28;99125;-72
2020/12/08 05:02:49;;;;;;;15.82;11.60;;;;;;;10.28;50.71;100034.09;4975176;28;96910;-72
2020/12/08 05:05:18;;;;;;;13.35;11.45;;;;;;;10.27;50.20;100033.25;4978005;28;98740;-71
2020/12/08 05:07:46;;;;;;;16.40;11.55;;;;;;;10.26;49.89;100033.16;4984967;28;98901;-73
2020/12/08 05:10:14;;;;;;;14.35;11.27;;;;;;;10.23;50.56;100033.94;4984366;28;99055;-73
2020/12/08 05:12:41;;;;;;;16.33;11.90;;;;;;;10.24;50.30;100034.84;4982086;28;98321;-73
2020/12/08 05:15:15;;;;;;;15.80;11.82;;;;;;;10.20;50.60;100041.66;4985608;28;96764;-73
2020/12/08 05:17:44;;;;;;;16.20;11.85;;;;;;;10.21;49.97;100038.22;4985548;28;101099;-73
2020/12/08 05:20:12;;;;;;;15.93;12.35;;;;;;;10.24;49.63;100045.34;4982325;28;98968;-73
2020/12/08 05:22:52;;;;;;;16.27;11.93;;;;;;;10.22;50.41;100050.50;4985878;28;97214;-73
2020/12/08 05:25:20;;;;;;;14.77;11.77;;;;;;;10.24;50.33;100037.47;4981718;28;96911;-73
2020/12/08 05:27:50;;;;;;;18.80;12.18;;;;;;;10.25;49.85;100052.38;4984178;28;98201;-74
2020/12/08 05:30:18;;;;;;;16.30;12.27;;;;;;;10.26;50.09;100054.13;4986669;28;98540;-74
2020/12/08 05:32:47;;;;;;;13.77;11.70;;;;;;;10.24;50.10;100047.97;4986232;28;98227;-73
2020/12/08 05:35:17;;;;;;;17.25;11.90;;;;;;;10.25;50.17;100045.41;4984951;28;97386;-72
2020/12/08 05:38:04;;;;;;;18.60;12.82;;;;;;;10.23;50.24;100047.06;4980434;28;98168;-72
2020/12/08 05:40:33;;;;;;;16.58;12.98;;;;;;;10.23;50.51;100043.53;4985682;28;99257;-73
2020/12/08 05:43:01;;;;;;;15.07;12.75;;;;;;;10.25;49.85;100052.38;4985414;28;97408;-73
2020/12/08 05:45:28;;;;;;;16.67;13.05;;;;;;;10.22;50.89;100061.00;4988604;28;97106;-73
2020/12/08 05:47:58;;;;;;;18.27;12.90;;;;;;;10.23;50.69;100054.03;4986371;28;98104;-72
2020/12/08 05:50:27;;;;;;;18.50;12.82;;;;;;;10.23;50.05;100052.31;4985947;28;100613;-72
2020/12/08 05:52:55;;;;;;;14.73;11.95;;;;;;;10.20;50.38;100060.03;4987189;28;98032;-72
2020/12/08 05:55:25;;;;;;;16.83;11.98;;;;;;;10.19;50.17;100063.50;4987048;28;96858;-72
2020/12/08 05:57:53;;;;;;;17.08;13.25;;;;;;;10.18;50.17;100061.72;4986231;28;97849;-72
2020/12/08 06:00:25;;;;;;;17.20;13.18;;;;;;;10.16;50.33;100059.00;4983519;28;99922;-72
2020/12/08 06:03:13;;;;;;;19.00;13.45;;;;;;;10.16;50.34;100061.63;4986513;28;96992;-72
2020/12/08 06:05:41;;;;;;;15.27;12.32;;;;;;;10.17;50.74;100063.44;4988488;28;96872;-72
2020/12/08 06:08:15;;;;;;;16.67;12.55;;;;;;;10.15;50.32;100061.56;4981400;28;98388;-72
2020/12/08 06:10:50;;;;;;;16.27;11.88;;;;;;;10.13;50.94;100064.13;4988686;28;98155;-71
2020/12/08 06:13:25;;;;;;;20.63;12.50;;;;;;;10.12;51.10;100059.72;4987842;28;97350;-72
2020/12/08 06:15:53;;;;;;;20.70;12.30;;;;;;;10.13;51.24;100060.59;4987028;28;97376;-72
2020/12/08 06:18:31;;;;;;;14.05;11.85;;;;;;;10.10;50.86;100061.38;4985540;28;98515;-72
2020/12/08 06:21:00;;;;;;;15.77;12.50;;;;;;;10.12;49.93;100069.31;4989045;28;97714;-71
2020/12/08 06:23:28;;;;;;;16.23;12.88;;;;;;;10.12;50.69;100064.06;4987513;28;98057;-71
2020/12/08 06:25:58;;;;;;;17.90;12.93;;;;;;;10.10;50.76;100071.88;4986632;28;97258;-71
2020/12/08 06:28:26;;;;;;;16.45;12.23;;;;;;;10.10;50.75;100074.50;4987499;28;98224;-72
2020/12/08 06:31:01;;;;;;;16.40;13.10;;;;;;;10.07;50.87;100074.31;4988045;28;97841;-72
2020/12/08 06:33:30;;;;;;;18.23;13.38;;;;;;;10.08;50.74;100069.97;4984477;28;96983;-72
2020/12/08 06:36:00;;;;;;;16.92;12.75;;;;;;;10.08;50.42;100056.84;4982515;28;97021;-71
2020/12/08 06:38:28;;;;;;;15.93;13.05;;;;;;;10.06;50.44;100067.28;4987594;28;97922;-71
2020/12/08 06:40:56;;;;;;;16.83;13.55;;;;;;;10.05;50.40;100065.47;4988264;28;99095;-72
2020/12/08 06:43:24;;;;;;;18.08;13.52;;;;;;;10.03;50.70;100064.53;4986475;28;97645;-72
2020/12/08 06:45:51;;;;;;;15.98;13.05;;;;;;;10.00;50.58;100064.38;4988643;28;97624;-72
2020/12/08 06:48:19;;;;;;;18.10;14.82;;;;;;;9.99;51.32;100067.84;4987855;28;97841;-72
2020/12/08 06:50:49;;;;;;;17.90;13.80;;;;;;;9.96;50.76;100067.69;4987523;28;99396;-71
2020/12/08 06:53:16;;;;;;;19.17;14.25;;;;;;;9.94;50.45;100071.09;4986678;28;97239;-72
2020/12/08 06:55:45;;;;;;;19.10;14.48;;;;;;;9.92;50.70;100065.78;4986468;28;97114;-72
2020/12/08 06:58:14;;;;;;;18.35;13.35;;;;;;;9.91;51.47;100082.34;4988252;28;98013;-71
2020/12/08 07:00:44;;;;;;;16.60;13.63;;;;;;;9.88;51.21;100076.97;4985933;28;101804;-72
2020/12/08 07:03:12;;;;;;;18.85;14.13;;;;;;;9.86;51.55;100081.25;4987456;28;97278;-72
2020/12/08 07:05:39;;;;;;;18.10;13.70;;;;;;;9.84;51.21;100080.28;4987763;28;97425;-72
2020/12/08 07:08:08;;;;;;;18.10;14.30;;;;;;;9.83;50.70;100083.75;4987603;28;100634;-72
2020/12/08 07:10:37;;;;;;;18.60;14.13;;;;;;;9.80;50.84;100085.31;4986153;28;97806;-72
2020/12/08 07:13:11;;;;;;;17.25;13.25;;;;;;;9.77;51.56;100093.06;4987655;28;96976;-71
2020/12/08 07:15:38;;;;;;;18.45;14.15;;;;;;;9.76;51.04;100096.53;4987599;28;97016;-72
2020/12/08 07:18:09;;;;;;;17.83;13.75;;;;;;;9.75;51.64;100094.69;4986356;28;98301;-72
2020/12/08 07:20:38;;;;;;;17.63;13.38;;;;;;;9.73;51.42;100102.50;4984800;28;99132;-72
2020/12/08 07:23:09;;;;;;;18.23;14.30;;;;;;;9.74;51.17;100106.03;4970784;28;97255;-71
2020/12/08 07:25:36;;;;;;;18.42;14.05;;;;;;;9.71;51.66;100101.53;4986900;28;97211;-75
2020/12/08 07:28:07;;;;;;;19.50;13.80;;;;;;;9.71;50.86;100096.28;4987367;28;97849;-71
2020/12/08 07:30:35;;;;;;;18.67;13.93;;;;;;;9.70;50.84;100101.47;4985150;28;99177;-74
2020/12/08 07:33:10;;;;;;;17.15;12.90;;;;;;;9.66;51.49;100102.16;4987573;28;97174;-73
2020/12/08 07:35:38;;;;;;;17.05;12.98;;;;;;;9.66;51.29;100099.53;4986860;28;99220;-73
2020/12/08 07:38:06;;;;;;;16.80;13.38;;;;;;;9.63;51.60;100095.06;4985562;28;98074;-73
2020/12/08 07:40:35;;;;;;;15.43;13.13;;;;;;;9.63;51.02;100091.53;4979789;28;98206;-73
2020/12/08 07:43:04;;;;;;;17.75;13.60;;;;;;;9.64;51.69;100098.56;4986316;28;97235;-73
2020/12/08 07:45:32;;;;;;;18.17;13.43;;;;;;;9.62;51.23;100090.63;4987625;28;96841;-73
2020/12/08 07:48:02;;;;;;;18.08;13.48;;;;;;;9.61;51.67;100094.09;4984730;28;100982;-73
2020/12/08 07:50:31;;;;;;;17.73;13.45;;;;;;;9.59;51.54;100090.50;4986218;28;99301;-74
2020/12/08 07:53:00;;;;;;;16.33;13.10;;;;;;;9.59;51.32;100098.38;4985904;28;97169;-73
2020/12/08 07:55:29;;;;;;;17.90;14.05;;;;;;;9.58;51.09;100099.19;4985415;28;97144;-72
2020/12/08 07:57:57;;;;;;;18.67;14.43;;;;;;;9.56;51.52;100090.34;4982130;28;99223;-73
2020/12/08 08:00:25;;;;;;;18.58;14.00;;;;;;;9.54;51.24;100107.75;4985798;28;97803;-73
2020/12/08 08:02:53;;;;;;;19.65;13.45;;;;;;;9.52;51.01;100104.16;4985390;28;96856;-73
2020/12/08 08:05:20;;;;;;;20.27;14.45;;;;;;;9.51;50.98;100107.59;4986102;28;96516;-73
2020/12/08 08:07:48;;;;;;;20.30;13.68;;;;;;;9.51;51.21;100098.81;4982854;28;97910;-73
2020/12/08 08:10:33;;;;;;;19.73;13.93;;;;;;;9.48;51.52;100110.09;4986498;28;97912;-73
2020/12/08 08:13:02;;;;;;;27.48;14.23;;;;;;;9.47;51.68;100108.28;4986883;28;97170;-73
2020/12/08 08:15:29;;;;;;;17.00;12.85;;;;;;;9.47;51.59;100110.91;4982461;28;96742;-73
2020/12/08 08:17:57;;;;;;;21.05;13.77;;;;;;;9.50;51.42;100111.06;4984718;28;98950;-73
2020/12/08 08:20:25;;;;;;;19.42;14.70;;;;;;;9.51;51.14;100112.84;4982845;28;99283;-73
2020/12/08 08:23:15;;;;;;;18.80;13.52;;;;;;;9.47;51.24;100110.91;4978337;28;96750;-73
2020/12/08 08:25:42;;;;;;;22.30;13.95;;;;;;;9.47;51.60;100116.13;4982577;28;96724;-73
2020/12/08 08:28:11;;;;;;;17.90;13.80;;;;;;;9.48;51.63;100123.19;4982511;28;97859;-73
2020/12/08 08:30:38;;;;;;;21.05;14.30;;;;;;;9.50;51.51;100120.63;4985679;28;97931;-72
2020/12/08 08:33:06;;;;;;;18.77;14.23;;;;;;;9.51;51.01;100118.09;4983920;28;97140;-72
2020/12/08 08:35:33;;;;;;;19.52;14.27;;;;;;;9.51;51.88;100123.31;4985110;28;97095;-73
2020/12/08 08:38:01;;;;;;;19.80;14.25;;;;;;;9.54;50.97;100120.88;4985771;28;98439;-73
2020/12/08 08:40:28;;;;;;;22.83;14.30;;;;;;;9.55;51.78;100122.66;4982526;28;99126;-72
2020/12/08 08:42:57;;;;;;;19.70;13.73;;;;;;;9.54;51.56;100122.59;4968585;28;97050;-73
2020/12/08 08:45:25;;;;;;;17.40;14.32;;;;;;;9.54;51.55;100130.44;4985676;28;96911;-73
2020/12/08 08:47:53;;;;;;;19.10;14.10;;;;;;;9.55;51.48;100121.75;4986037;28;101570;-72
2020/12/08 08:50:20;;;;;;;23.92;15.52;;;;;;;9.55;51.95;100127.88;4985489;28;99193;-73
2020/12/08 08:52:48;;;;;;;21.10;13.38;;;;;;;9.55;51.38;100127.88;4982373;28;97248;-73
2020/12/08 08:55:15;;;;;;;23.88;13.90;;;;;;;9.54;51.29;100133.06;4982164;28;97318;-73
2020/12/08 08:57:43;;;;;;;21.85;14.13;;;;;;;9.55;51.99;100130.50;4985104;28;97961;-72
2020/12/08 09:00:29;;;;;;;19.75;15.18;;;;;;;9.58;51.40;100135.88;4985861;28;98166;-73
2020/12/08 09:02:58;;;;;;;19.35;13.60;;;;;;;9.60;51.76;100136.84;5002662;22;96967;-77
2020/12/08 09:05:26;;;;;;;20.83;15.23;;;;;;;9.61;51.29;100135.16;4983069;28;97048;-77
2020/12/08 09:07:54;;;;;;;17.98;13.25;;;;;;;9.62;51.39;100137.81;4988025;28;102134;-77
2020/12/08 09:10:21;;;;;;;17.92;14.25;;;;;;;9.63;51.34;100137.03;4969612;28;99184;-76
2020/12/08 09:12:49;;;;;;;18.88;13.38;;;;;;;9.67;51.14;100140.69;4984704;28;96771;-77
2020/12/08 09:15:16;;;;;;;21.00;13.73;;;;;;;9.70;51.63;100141.72;4987452;28;97368;-76
2020/12/08 09:17:44;;;;;;;20.13;14.30;;;;;;;9.74;51.65;100142.75;4985673;28;98200;-77
2020/12/08 09:20:12;;;;;;;20.95;14.60;;;;;;;9.79;50.91;100144.75;4993607;28;101513;-76
2020/12/08 09:22:41;;;;;;;18.83;14.07;;;;;;;9.82;51.33;100139.66;4990187;28;96942;-77
2020/12/08 09:25:08;;;;;;;18.38;14.50;;;;;;;9.85;51.06;100137.16;4988835;28;97796;-77
2020/12/08 09:27:36;;;;;;;17.92;14.25;;;;;;;9.89;51.53;100136.47;4988075;28;97929;-76
2020/12/08 09:30:04;;;;;;;18.60;14.25;;;;;;;9.93;51.31;100135.78;4989403;28;99082;-77
2020/12/08 09:32:31;;;;;;;18.42;13.60;;;;;;;9.96;51.11;100128.03;4989700;28;97307;-77
2020/12/08 09:35:00;;;;;;;19.98;14.98;;;;;;;9.99;50.62;100116.78;4992798;28;97311;-77
2020/12/08 09:37:28;;;;;;;18.38;13.70;;;;;;;10.02;51.19;100124.78;4993362;28;97840;-77
2020/12/08 09:39:55;;;;;;;17.98;13.35;;;;;;;10.07;51.21;100134.66;4989331;28;98350;-77
2020/12/08 09:42:23;;;;;;;20.83;14.60;;;;;;;10.11;50.91;100128.75;4988290;28;97230;-77
2020/12/08 09:44:51;;;;;;;17.50;14.05;;;;;;;10.14;51.30;100125.38;4990652;28;96723;-77
2020/12/08 09:47:18;;;;;;;18.20;13.32;;;;;;;10.19;51.02;100124.75;4988471;28;98177;-76
2020/12/08 09:49:46;;;;;;;20.88;13.73;;;;;;;10.23;50.83;100125.78;4987313;28;98960;-76
2020/12/08 09:52:15;;;;;;;18.23;13.95;;;;;;;10.29;50.61;100128.69;4969309;28;97942;-77
2020/12/08 09:54:43;;;;;;;20.55;14.68;;;;;;;10.36;51.04;100140.34;4991583;28;96990;-77
2020/12/08 09:57:10;;;;;;;18.65;14.00;;;;;;;10.39;50.86;100133.50;4987449;28;98351;-77
2020/12/08 09:59:39;;;;;;;19.85;14.00;;;;;;;10.44;50.76;100136.34;4988823;28;97724;-77
2020/12/08 10:02:07;;;;;;;19.33;14.70;;;;;;;10.48;50.24;100144.38;4987626;28;97172;-76
2020/12/08 10:04:35;;;;;;;21.10;14.02;;;;;;;10.53;50.38;100142.84;4989182;28;96811;-77
2020/12/08 10:07:02;;;;;;;22.08;14.73;;;;;;;10.57;50.64;100134.28;4989603;28;100102;-77
2020/12/08 10:09:49;;;;;;;24.63;14.60;;;;;;;10.62;50.80;100140.63;4988423;28;97824;-77
2020/12/08 10:12:17;;;;;;;25.52;14.40;;;;;;;10.69;50.54;100141.78;4990804;28;97427;-76
2020/12/08 10:14:47;;;;;;;27.90;15.98;;;;;;;10.71;50.22;100137.50;4989253;28;96921;-77
2020/12/08 10:17:15;;;;;;;20.55;15.07;;;;;;;10.76;50.10;100147.38;4989756;28;98113;-77
2020/12/08 10:19:43;;;;;;;19.58;13.88;;;;;;;10.81;50.59;100147.53;4986225;28;99421;-77
2020/12/08 10:22:12;;;;;;;20.35;14.98;;;;;;;10.86;50.58;100132.88;4988172;28;97332;-77
2020/12/08 10:24:39;;;;;;;26.23;15.25;;;;;;;10.91;50.28;100139.22;4985799;28;96741;-77
2020/12/08 10:27:08;;;;;;;23.25;15.30;;;;;;;10.94;49.88;100142.88;4987951;28;102948;-77
2020/12/08 10:29:35;;;;;;;18.95;13.70;;;;;;;10.97;50.52;100139.47;4988363;28;98279;-77
2020/12/08 10:32:02;;;;;;;20.35;14.35;;;;;;;10.99;50.45;100137.78;4989018;28;97180;-77
2020/12/08 10:34:30;;;;;;;23.15;15.10;;;;;;;11.02;50.20;100128.31;4989240;28;98574;-77
2020/12/08 10:36:58;;;;;;;22.77;14.82;;;;;;;11.05;50.10;100130.16;4974085;28;98745;-77
2020/12/08 10:39:26;;;;;;;28.80;18.27;;;;;;;11.07;50.00;100118.00;4986073;28;99505;-77
2020/12/08 10:41:54;;;;;;;61.45;33.90;;;;;;;11.10;50.07;100123.34;4986154;28;96871;-77
2020/12/08 10:44:41;;;;;;;44.30;24.17;;;;;;;11.13;49.94;100126.13;4990607;28;97329;-77
2020/12/08 10:47:08;;;;;;;23.75;16.50;;;;;;;11.17;50.28;100120.13;4990587;28;98208;-77
2020/12/08 10:49:54;;;;;;;22.23;15.68;;;;;;;11.20;50.21;100131.66;4990462;28;98352;-77
2020/12/08 10:52:22;;;;;;;22.67;15.15;;;;;;;11.24;49.79;100111.66;4988068;28;96855;-77
2020/12/08 10:54:50;;;;;;;24.60;15.30;;;;;;;11.27;49.69;100111.78;4990798;28;97143;-76
2020/12/08 10:57:17;;;;;;;20.90;15.07;;;;;;;11.31;49.85;100107.56;4986907;28;97313;-76
2020/12/08 10:59:46;;;;;;;22.70;15.68;;;;;;;11.33;50.26;100103.25;4987499;28;98599;-77
2020/12/08 11:02:14;;;;;;;23.08;15.80;;;;;;;11.34;49.77;100098.06;4985238;28;97416;-77
2020/12/08 11:04:41;;;;;;;22.00;14.52;;;;;;;11.35;49.87;100094.56;4987935;28;98509;-77
2020/12/08 11:07:12;;;;;;;20.30;14.77;;;;;;;11.37;50.39;100082.38;4987295;28;99146;-76
2020/12/08 11:09:40;;;;;;;21.63;15.82;;;;;;;11.40;49.72;100092.13;4987614;28;97854;-75
2020/12/08 11:12:07;;;;;;;28.65;16.52;;;;;;;11.42;50.21;100100.97;4986586;28;96851;-77
2020/12/08 11:14:34;;;;;;;22.92;15.07;;;;;;;11.46;50.20;100095.00;4988967;28;97252;-77
2020/12/08 11:17:03;;;;;;;23.20;15.60;;;;;;;11.49;49.93;100095.13;4987696;28;97496;-77
2020/12/08 11:19:36;;;;;;;51.05;28.90;;;;;;;11.53;49.69;100104.94;4986868;28;97967;-77
2020/12/08 11:22:04;;;;;;;62.20;32.75;;;;;;;11.57;49.82;100107.72;4983418;28;97127;-77
2020/12/08 11:24:39;;;;;;;35.42;21.13;;;;;;;11.59;49.56;100099.88;4989440;28;96772;-77